sensor_id;sensor_type;location;lat;lon;timestamp;P1;durP1;ratioP1;P2;durP2;ratioP2
76107;SDS011;64834;52.516;10.528;2023-06-22T00:02:13;9.75;;;8.00;;
76107;SDS011;64834;52.516;10.528;2023-06-22T00:04:38;9.20;;;7.72;;
76107;SDS011;64834;52.516;10.528;2023-06-22T00:07:03;9.77;;;8.77;;
76107;SDS011;64834;52.516;10.528;2023-06-22T00:09:29;10.85;;;9.20;;
76107;SDS011;64834;52.516;10.528;2023-06-22T00:11:55;10.98;;;7.50;;
76107;SDS011;64834;52.516;10.528;2023-06-22T00:14:21;12.30;;;7.97;;
76107;SDS011;64834;52.516;10.528;2023-06-22T00:16:46;10.13;;;7.80;;
76107;SDS011;64834;52.516;10.528;2023-06-22T00:19:13;8.93;;;8.02;;
76107;SDS011;64834;52.516;10.528;2023-06-22T00:21:39;9.05;;;8.00;;
76107;SDS011;64834;52.516;10.528;2023-06-22T00:24:04;10.27;;;7.85;;
76107;SDS011;64834;52.516;10.528;2023-06-22T00:26:31;9.25;;;7.82;;
76107;SDS011;64834;52.516;10.528;2023-06-22T00:28:56;10.10;;;8.20;;
76107;SDS011;64834;52.516;10.528;2023-06-22T00:31:21;9.82;;;8.13;;
76107;SDS011;64834;52.516;10.528;2023-06-22T00:33:47;9.57;;;7.82;;
76107;SDS011;64834;52.516;10.528;2023-06-22T00:36:12;9.55;;;8.10;;
76107;SDS011;64834;52.516;10.528;2023-06-22T00:38:41;8.40;;;7.50;;
76107;SDS011;64834;52.516;10.528;2023-06-22T00:41:06;8.77;;;7.78;;
76107;SDS011;64834;52.516;10.528;2023-06-22T00:43:32;9.05;;;7.85;;
76107;SDS011;64834;52.516;10.528;2023-06-22T00:45:57;9.60;;;8.00;;
76107;SDS011;64834;52.516;10.528;2023-06-22T00:48:22;11.00;;;8.65;;
76107;SDS011;64834;52.516;10.528;2023-06-22T00:50:48;9.77;;;8.75;;
76107;SDS011;64834;52.516;10.528;2023-06-22T00:53:16;10.55;;;8.38;;
76107;SDS011;64834;52.516;10.528;2023-06-22T00:55:43;10.60;;;8.02;;
76107;SDS011;64834;52.516;10.528;2023-06-22T00:58:12;9.15;;;8.25;;
76107;SDS011;64834;52.516;10.528;2023-06-22T01:00:38;9.15;;;8.00;;
76107;SDS011;64834;52.516;10.528;2023-06-22T01:03:04;9.27;;;7.95;;
76107;SDS011;64834;52.516;10.528;2023-06-22T01:05:33;8.82;;;7.72;;
76107;SDS011;64834;52.516;10.528;2023-06-22T01:10:44;9.48;;;7.88;;
76107;SDS011;64834;52.516;10.528;2023-06-22T01:14:05;9.23;;;7.63;;
76107;SDS011;64834;52.516;10.528;2023-06-22T01:16:39;8.18;;;7.25;;
76107;SDS011;64834;52.516;10.528;2023-06-22T01:19:20;10.23;;;8.00;;
76107;SDS011;64834;52.516;10.528;2023-06-22T01:22:08;9.25;;;7.60;;
76107;SDS011;64834;52.516;10.528;2023-06-22T01:24:41;10.18;;;7.70;;
76107;SDS011;64834;52.516;10.528;2023-06-22T01:27:26;9.43;;;8.43;;
76107;SDS011;64834;52.516;10.528;2023-06-22T01:32:33;9.35;;;8.10;;
76107;SDS011;64834;52.516;10.528;2023-06-22T01:35:01;10.40;;;8.32;;
76107;SDS011;64834;52.516;10.528;2023-06-22T01:37:30;9.75;;;8.40;;
76107;SDS011;64834;52.516;10.528;2023-06-22T01:39:57;10.60;;;8.75;;
76107;SDS011;64834;52.516;10.528;2023-06-22T01:42:26;10.77;;;8.48;;
76107;SDS011;64834;52.516;10.528;2023-06-22T01:44:53;9.10;;;8.00;;
76107;SDS011;64834;52.516;10.528;2023-06-22T01:47:20;10.32;;;8.63;;
76107;SDS011;64834;52.516;10.528;2023-06-22T01:49:46;9.35;;;8.18;;
76107;SDS011;64834;52.516;10.528;2023-06-22T01:52:11;9.55;;;8.35;;
76107;SDS011;64834;52.516;10.528;2023-06-22T01:54:37;11.35;;;7.82;;
76107;SDS011;64834;52.516;10.528;2023-06-22T01:57:03;10.43;;;8.15;;
76107;SDS011;64834;52.516;10.528;2023-06-22T01:59:31;10.45;;;8.93;;
76107;SDS011;64834;52.516;10.528;2023-06-22T02:02:09;9.23;;;7.97;;
76107;SDS011;64834;52.516;10.528;2023-06-22T02:04:38;9.68;;;8.35;;
76107;SDS011;64834;52.516;10.528;2023-06-22T02:07:20;11.35;;;8.57;;
76107;SDS011;64834;52.516;10.528;2023-06-22T02:09:48;9.25;;;8.20;;
76107;SDS011;64834;52.516;10.528;2023-06-22T02:12:18;11.60;;;8.98;;
76107;SDS011;64834;52.516;10.528;2023-06-22T02:14:47;10.93;;;8.55;;
76107;SDS011;64834;52.516;10.528;2023-06-22T02:17:13;10.60;;;8.75;;
76107;SDS011;64834;52.516;10.528;2023-06-22T02:19:42;11.00;;;8.30;;
76107;SDS011;64834;52.516;10.528;2023-06-22T02:22:07;10.75;;;8.98;;
76107;SDS011;64834;52.516;10.528;2023-06-22T02:24:32;9.55;;;8.38;;
76107;SDS011;64834;52.516;10.528;2023-06-22T02:26:58;9.85;;;8.82;;
76107;SDS011;64834;52.516;10.528;2023-06-22T02:29:24;10.50;;;8.30;;
76107;SDS011;64834;52.516;10.528;2023-06-22T02:31:50;10.95;;;8.57;;
76107;SDS011;64834;52.516;10.528;2023-06-22T02:34:15;9.10;;;8.13;;
76107;SDS011;64834;52.516;10.528;2023-06-22T02:36:44;9.82;;;8.82;;
76107;SDS011;64834;52.516;10.528;2023-06-22T02:39:16;9.73;;;8.68;;
76107;SDS011;64834;52.516;10.528;2023-06-22T02:41:45;8.95;;;7.82;;
76107;SDS011;64834;52.516;10.528;2023-06-22T02:44:10;10.85;;;8.63;;
76107;SDS011;64834;52.516;10.528;2023-06-22T02:46:36;10.63;;;8.93;;
76107;SDS011;64834;52.516;10.528;2023-06-22T02:49:01;11.32;;;8.88;;
76107;SDS011;64834;52.516;10.528;2023-06-22T02:51:27;10.20;;;9.07;;
76107;SDS011;64834;52.516;10.528;2023-06-22T02:53:53;10.75;;;9.38;;
76107;SDS011;64834;52.516;10.528;2023-06-22T02:56:22;9.98;;;8.80;;
76107;SDS011;64834;52.516;10.528;2023-06-22T02:58:50;10.15;;;9.00;;
76107;SDS011;64834;52.516;10.528;2023-06-22T03:01:15;10.00;;;8.77;;
76107;SDS011;64834;52.516;10.528;2023-06-22T03:03:40;12.27;;;8.98;;
76107;SDS011;64834;52.516;10.528;2023-06-22T03:06:06;12.02;;;8.85;;
76107;SDS011;64834;52.516;10.528;2023-06-22T03:08:31;10.27;;;8.95;;
76107;SDS011;64834;52.516;10.528;2023-06-22T03:10:56;11.90;;;9.13;;
76107;SDS011;64834;52.516;10.528;2023-06-22T03:13:22;10.55;;;9.15;;
76107;SDS011;64834;52.516;10.528;2023-06-22T03:15:48;10.68;;;9.63;;
76107;SDS011;64834;52.516;10.528;2023-06-22T03:18:13;10.70;;;9.48;;
76107;SDS011;64834;52.516;10.528;2023-06-22T03:20:38;11.02;;;9.05;;
76107;SDS011;64834;52.516;10.528;2023-06-22T03:23:04;9.95;;;8.18;;
76107;SDS011;64834;52.516;10.528;2023-06-22T03:25:30;10.32;;;9.27;;
76107;SDS011;64834;52.516;10.528;2023-06-22T03:27:55;10.82;;;9.55;;
76107;SDS011;64834;52.516;10.528;2023-06-22T03:30:20;11.20;;;9.77;;
76107;SDS011;64834;52.516;10.528;2023-06-22T03:32:46;11.02;;;9.52;;
76107;SDS011;64834;52.516;10.528;2023-06-22T03:35:11;10.23;;;8.68;;
76107;SDS011;64834;52.516;10.528;2023-06-22T03:37:38;10.32;;;8.85;;
76107;SDS011;64834;52.516;10.528;2023-06-22T03:40:04;10.15;;;9.00;;
76107;SDS011;64834;52.516;10.528;2023-06-22T03:42:30;10.48;;;9.13;;
76107;SDS011;64834;52.516;10.528;2023-06-22T03:44:55;11.65;;;8.98;;
76107;SDS011;64834;52.516;10.528;2023-06-22T03:47:20;12.20;;;10.02;;
76107;SDS011;64834;52.516;10.528;2023-06-22T03:49:47;12.27;;;9.82;;
76107;SDS011;64834;52.516;10.528;2023-06-22T03:52:12;11.85;;;9.63;;
76107;SDS011;64834;52.516;10.528;2023-06-22T03:54:37;10.68;;;8.80;;
76107;SDS011;64834;52.516;10.528;2023-06-22T03:57:03;10.65;;;9.43;;
76107;SDS011;64834;52.516;10.528;2023-06-22T03:59:28;11.45;;;9.20;;
76107;SDS011;64834;52.516;10.528;2023-06-22T04:01:54;9.70;;;8.13;;
76107;SDS011;64834;52.516;10.528;2023-06-22T04:04:19;9.93;;;8.73;;
76107;SDS011;64834;52.516;10.528;2023-06-22T04:06:45;12.07;;;9.35;;
76107;SDS011;64834;52.516;10.528;2023-06-22T04:09:10;10.18;;;8.65;;
76107;SDS011;64834;52.516;10.528;2023-06-22T04:11:36;10.10;;;8.55;;
76107;SDS011;64834;52.516;10.528;2023-06-22T04:14:01;10.65;;;8.73;;
76107;SDS011;64834;52.516;10.528;2023-06-22T04:16:26;9.70;;;8.07;;
76107;SDS011;64834;52.516;10.528;2023-06-22T04:18:52;9.00;;;7.75;;
76107;SDS011;64834;52.516;10.528;2023-06-22T04:21:17;9.27;;;8.15;;
76107;SDS011;64834;52.516;10.528;2023-06-22T04:23:44;9.70;;;8.70;;
76107;SDS011;64834;52.516;10.528;2023-06-22T04:26:11;10.00;;;8.93;;
76107;SDS011;64834;52.516;10.528;2023-06-22T04:28:36;8.75;;;7.85;;
76107;SDS011;64834;52.516;10.528;2023-06-22T04:31:02;10.07;;;7.85;;
76107;SDS011;64834;52.516;10.528;2023-06-22T04:33:27;9.95;;;8.38;;
76107;SDS011;64834;52.516;10.528;2023-06-22T04:35:54;9.10;;;8.18;;
76107;SDS011;64834;52.516;10.528;2023-06-22T04:38:22;12.40;;;9.07;;
76107;SDS011;64834;52.516;10.528;2023-06-22T04:40:48;9.98;;;8.27;;
76107;SDS011;64834;52.516;10.528;2023-06-22T04:43:14;10.85;;;8.23;;
76107;SDS011;64834;52.516;10.528;2023-06-22T04:45:39;10.20;;;8.32;;
76107;SDS011;64834;52.516;10.528;2023-06-22T04:48:04;10.20;;;8.05;;
76107;SDS011;64834;52.516;10.528;2023-06-22T04:50:30;10.88;;;9.77;;
76107;SDS011;64834;52.516;10.528;2023-06-22T04:52:55;9.10;;;8.15;;
76107;SDS011;64834;52.516;10.528;2023-06-22T04:55:21;9.02;;;7.70;;
76107;SDS011;64834;52.516;10.528;2023-06-22T04:57:47;9.75;;;8.13;;
76107;SDS011;64834;52.516;10.528;2023-06-22T05:00:17;9.32;;;7.85;;
76107;SDS011;64834;52.516;10.528;2023-06-22T05:02:44;9.45;;;7.97;;
76107;SDS011;64834;52.516;10.528;2023-06-22T05:05:11;8.68;;;7.78;;
76107;SDS011;64834;52.516;10.528;2023-06-22T05:07:43;8.90;;;7.75;;
76107;SDS011;64834;52.516;10.528;2023-06-22T05:10:10;8.75;;;7.60;;
76107;SDS011;64834;52.516;10.528;2023-06-22T05:12:37;8.25;;;7.32;;
76107;SDS011;64834;52.516;10.528;2023-06-22T05:15:04;9.40;;;7.90;;
76107;SDS011;64834;52.516;10.528;2023-06-22T05:17:30;10.32;;;7.68;;
76107;SDS011;64834;52.516;10.528;2023-06-22T05:19:55;10.40;;;7.50;;
76107;SDS011;64834;52.516;10.528;2023-06-22T05:22:21;8.10;;;7.22;;
76107;SDS011;64834;52.516;10.528;2023-06-22T05:24:46;8.52;;;7.72;;
76107;SDS011;64834;52.516;10.528;2023-06-22T05:27:12;10.10;;;7.65;;
76107;SDS011;64834;52.516;10.528;2023-06-22T05:29:38;9.02;;;7.63;;
76107;SDS011;64834;52.516;10.528;2023-06-22T05:32:03;8.13;;;7.05;;
76107;SDS011;64834;52.516;10.528;2023-06-22T05:34:29;8.15;;;7.35;;
76107;SDS011;64834;52.516;10.528;2023-06-22T05:36:54;13.38;;;7.60;;
76107;SDS011;64834;52.516;10.528;2023-06-22T05:39:19;8.63;;;7.72;;
76107;SDS011;64834;52.516;10.528;2023-06-22T05:41:45;8.27;;;7.05;;
76107;SDS011;64834;52.516;10.528;2023-06-22T05:44:11;8.10;;;7.30;;
76107;SDS011;64834;52.516;10.528;2023-06-22T05:46:36;7.53;;;6.75;;
76107;SDS011;64834;52.516;10.528;2023-06-22T05:49:02;8.38;;;7.57;;
76107;SDS011;64834;52.516;10.528;2023-06-22T05:51:27;8.32;;;6.80;;
76107;SDS011;64834;52.516;10.528;2023-06-22T05:53:52;7.90;;;7.10;;
76107;SDS011;64834;52.516;10.528;2023-06-22T05:56:18;7.57;;;6.78;;
76107;SDS011;64834;52.516;10.528;2023-06-22T05:58:43;8.88;;;6.90;;
76107;SDS011;64834;52.516;10.528;2023-06-22T06:01:09;8.90;;;6.65;;
76107;SDS011;64834;52.516;10.528;2023-06-22T06:03:34;7.85;;;7.00;;
76107;SDS011;64834;52.516;10.528;2023-06-22T06:06:05;8.25;;;7.38;;
76107;SDS011;64834;52.516;10.528;2023-06-22T06:08:31;9.10;;;6.68;;
76107;SDS011;64834;52.516;10.528;2023-06-22T06:10:56;8.57;;;6.88;;
76107;SDS011;64834;52.516;10.528;2023-06-22T06:13:22;8.15;;;6.72;;
76107;SDS011;64834;52.516;10.528;2023-06-22T06:15:48;6.60;;;5.07;;
76107;SDS011;64834;52.516;10.528;2023-06-22T06:18:13;6.65;;;5.10;;
76107;SDS011;64834;52.516;10.528;2023-06-22T06:20:38;7.20;;;4.60;;
76107;SDS011;64834;52.516;10.528;2023-06-22T06:23:04;5.82;;;4.53;;
76107;SDS011;64834;52.516;10.528;2023-06-22T06:25:29;6.75;;;4.72;;
76107;SDS011;64834;52.516;10.528;2023-06-22T06:27:54;6.63;;;4.80;;
76107;SDS011;64834;52.516;10.528;2023-06-22T06:30:20;6.25;;;4.70;;
76107;SDS011;64834;52.516;10.528;2023-06-22T06:32:46;6.50;;;4.60;;
76107;SDS011;64834;52.516;10.528;2023-06-22T06:35:12;10.70;;;5.03;;
76107;SDS011;64834;52.516;10.528;2023-06-22T06:37:40;5.18;;;4.32;;
76107;SDS011;64834;52.516;10.528;2023-06-22T06:40:07;6.25;;;5.30;;
76107;SDS011;64834;52.516;10.528;2023-06-22T06:42:35;8.55;;;4.32;;
76107;SDS011;64834;52.516;10.528;2023-06-22T06:45:03;5.32;;;4.38;;
76107;SDS011;64834;52.516;10.528;2023-06-22T06:47:29;8.52;;;5.25;;
76107;SDS011;64834;52.516;10.528;2023-06-22T06:49:54;6.20;;;4.68;;
76107;SDS011;64834;52.516;10.528;2023-06-22T06:52:20;8.13;;;4.90;;
76107;SDS011;64834;52.516;10.528;2023-06-22T06:54:45;6.40;;;4.40;;
76107;SDS011;64834;52.516;10.528;2023-06-22T06:57:11;7.45;;;4.68;;
76107;SDS011;64834;52.516;10.528;2023-06-22T07:02:03;6.50;;;4.53;;
76107;SDS011;64834;52.516;10.528;2023-06-22T07:04:29;6.68;;;4.93;;
76107;SDS011;64834;52.516;10.528;2023-06-22T07:06:55;5.30;;;4.65;;
76107;SDS011;64834;52.516;10.528;2023-06-22T07:09:20;5.82;;;4.72;;
76107;SDS011;64834;52.516;10.528;2023-06-22T07:11:47;5.63;;;4.15;;
76107;SDS011;64834;52.516;10.528;2023-06-22T07:14:12;6.95;;;4.80;;
76107;SDS011;64834;52.516;10.528;2023-06-22T07:16:38;5.75;;;4.57;;
76107;SDS011;64834;52.516;10.528;2023-06-22T07:19:03;5.72;;;4.82;;
76107;SDS011;64834;52.516;10.528;2023-06-22T07:21:28;7.38;;;5.38;;
76107;SDS011;64834;52.516;10.528;2023-06-22T07:23:54;6.03;;;5.22;;
76107;SDS011;64834;52.516;10.528;2023-06-22T07:26:19;6.05;;;4.65;;
76107;SDS011;64834;52.516;10.528;2023-06-22T07:28:45;6.35;;;4.88;;
76107;SDS011;64834;52.516;10.528;2023-06-22T07:31:10;5.70;;;5.10;;
76107;SDS011;64834;52.516;10.528;2023-06-22T07:33:35;5.47;;;4.93;;
76107;SDS011;64834;52.516;10.528;2023-06-22T07:36:01;8.13;;;4.80;;
76107;SDS011;64834;52.516;10.528;2023-06-22T07:38:28;8.77;;;5.18;;
76107;SDS011;64834;52.516;10.528;2023-06-22T07:40:54;6.63;;;5.45;;
76107;SDS011;64834;52.516;10.528;2023-06-22T07:43:19;7.28;;;5.47;;
76107;SDS011;64834;52.516;10.528;2023-06-22T07:45:48;7.75;;;5.15;;
76107;SDS011;64834;52.516;10.528;2023-06-22T07:48:17;6.25;;;4.90;;
76107;SDS011;64834;52.516;10.528;2023-06-22T07:50:42;9.18;;;5.43;;
76107;SDS011;64834;52.516;10.528;2023-06-22T07:53:07;6.82;;;5.50;;
76107;SDS011;64834;52.516;10.528;2023-06-22T07:55:33;6.57;;;5.82;;
76107;SDS011;64834;52.516;10.528;2023-06-22T07:57:58;6.90;;;5.72;;
76107;SDS011;64834;52.516;10.528;2023-06-22T08:00:23;7.30;;;5.13;;
76107;SDS011;64834;52.516;10.528;2023-06-22T08:02:49;7.80;;;6.00;;
76107;SDS011;64834;52.516;10.528;2023-06-22T08:05:14;6.88;;;5.65;;
76107;SDS011;64834;52.516;10.528;2023-06-22T08:07:40;8.73;;;6.38;;
76107;SDS011;64834;52.516;10.528;2023-06-22T08:10:09;8.70;;;6.63;;
76107;SDS011;64834;52.516;10.528;2023-06-22T08:12:35;8.73;;;7.57;;
76107;SDS011;64834;52.516;10.528;2023-06-22T08:15:01;12.15;;;7.25;;
76107;SDS011;64834;52.516;10.528;2023-06-22T08:17:26;9.35;;;7.38;;
76107;SDS011;64834;52.516;10.528;2023-06-22T08:19:51;8.82;;;7.25;;
76107;SDS011;64834;52.516;10.528;2023-06-22T08:22:17;9.27;;;7.97;;
76107;SDS011;64834;52.516;10.528;2023-06-22T08:24:43;10.80;;;7.57;;
76107;SDS011;64834;52.516;10.528;2023-06-22T08:27:09;8.32;;;7.00;;
76107;SDS011;64834;52.516;10.528;2023-06-22T08:29:36;9.95;;;7.47;;
76107;SDS011;64834;52.516;10.528;2023-06-22T08:32:02;8.25;;;7.38;;
76107;SDS011;64834;52.516;10.528;2023-06-22T08:34:27;8.80;;;7.75;;
76107;SDS011;64834;52.516;10.528;2023-06-22T08:36:53;8.70;;;7.80;;
76107;SDS011;64834;52.516;10.528;2023-06-22T08:39:19;9.85;;;7.80;;
76107;SDS011;64834;52.516;10.528;2023-06-22T08:41:45;8.80;;;7.57;;
76107;SDS011;64834;52.516;10.528;2023-06-22T08:44:11;10.70;;;7.68;;
76107;SDS011;64834;52.516;10.528;2023-06-22T08:46:36;9.65;;;8.10;;
76107;SDS011;64834;52.516;10.528;2023-06-22T08:49:03;10.57;;;8.20;;
76107;SDS011;64834;52.516;10.528;2023-06-22T08:51:29;8.82;;;7.93;;
76107;SDS011;64834;52.516;10.528;2023-06-22T08:53:54;8.93;;;8.02;;
76107;SDS011;64834;52.516;10.528;2023-06-22T08:56:20;10.30;;;8.93;;
76107;SDS011;64834;52.516;10.528;2023-06-22T08:58:45;10.68;;;9.10;;
76107;SDS011;64834;52.516;10.528;2023-06-22T09:01:10;11.02;;;8.20;;
76107;SDS011;64834;52.516;10.528;2023-06-22T09:03:36;10.05;;;8.60;;
76107;SDS011;64834;52.516;10.528;2023-06-22T09:06:02;8.35;;;7.50;;
76107;SDS011;64834;52.516;10.528;2023-06-22T09:08:28;8.93;;;8.02;;
76107;SDS011;64834;52.516;10.528;2023-06-22T09:10:53;9.80;;;8.73;;
76107;SDS011;64834;52.516;10.528;2023-06-22T09:13:18;9.18;;;8.13;;
76107;SDS011;64834;52.516;10.528;2023-06-22T09:15:44;10.40;;;8.55;;
76107;SDS011;64834;52.516;10.528;2023-06-22T09:18:13;12.25;;;8.98;;
76107;SDS011;64834;52.516;10.528;2023-06-22T09:20:38;9.48;;;8.45;;
76107;SDS011;64834;52.516;10.528;2023-06-22T09:23:04;10.15;;;9.15;;
76107;SDS011;64834;52.516;10.528;2023-06-22T09:25:30;9.82;;;8.82;;
76107;SDS011;64834;52.516;10.528;2023-06-22T09:27:56;12.20;;;8.30;;
76107;SDS011;64834;52.516;10.528;2023-06-22T09:30:21;9.35;;;8.40;;
76107;SDS011;64834;52.516;10.528;2023-06-22T09:32:46;11.60;;;9.05;;
76107;SDS011;64834;52.516;10.528;2023-06-22T09:35:12;10.27;;;8.88;;
76107;SDS011;64834;52.516;10.528;2023-06-22T09:37:38;9.68;;;8.18;;
76107;SDS011;64834;52.516;10.528;2023-06-22T09:40:04;10.18;;;8.18;;
76107;SDS011;64834;52.516;10.528;2023-06-22T09:42:35;9.85;;;8.23;;
76107;SDS011;64834;52.516;10.528;2023-06-22T09:45:00;10.75;;;9.65;;
76107;SDS011;64834;52.516;10.528;2023-06-22T09:47:26;10.90;;;8.70;;
76107;SDS011;64834;52.516;10.528;2023-06-22T09:49:52;10.35;;;8.65;;
76107;SDS011;64834;52.516;10.528;2023-06-22T09:52:17;9.48;;;8.48;;
76107;SDS011;64834;52.516;10.528;2023-06-22T09:54:42;10.32;;;9.20;;
76107;SDS011;64834;52.516;10.528;2023-06-22T09:57:08;10.95;;;8.90;;
76107;SDS011;64834;52.516;10.528;2023-06-22T09:59:33;9.50;;;8.40;;
76107;SDS011;64834;52.516;10.528;2023-06-22T10:01:58;11.30;;;8.18;;
76107;SDS011;64834;52.516;10.528;2023-06-22T10:04:24;10.18;;;9.18;;
76107;SDS011;64834;52.516;10.528;2023-06-22T10:06:50;9.90;;;8.30;;
76107;SDS011;64834;52.516;10.528;2023-06-22T10:09:15;10.02;;;8.90;;
76107;SDS011;64834;52.516;10.528;2023-06-22T10:11:41;9.85;;;8.85;;
76107;SDS011;64834;52.516;10.528;2023-06-22T10:14:06;9.45;;;8.45;;
76107;SDS011;64834;52.516;10.528;2023-06-22T10:16:32;9.38;;;8.30;;
76107;SDS011;64834;52.516;10.528;2023-06-22T10:18:57;9.75;;;8.63;;
76107;SDS011;64834;52.516;10.528;2023-06-22T10:21:23;9.95;;;8.95;;
76107;SDS011;64834;52.516;10.528;2023-06-22T10:23:48;11.70;;;8.57;;
76107;SDS011;64834;52.516;10.528;2023-06-22T10:26:13;8.88;;;7.80;;
76107;SDS011;64834;52.516;10.528;2023-06-22T10:28:39;10.10;;;8.90;;
76107;SDS011;64834;52.516;10.528;2023-06-22T10:31:04;10.07;;;8.90;;
76107;SDS011;64834;52.516;10.528;2023-06-22T10:33:29;9.07;;;8.05;;
76107;SDS011;64834;52.516;10.528;2023-06-22T10:35:55;8.90;;;7.82;;
76107;SDS011;64834;52.516;10.528;2023-06-22T10:38:20;9.50;;;8.55;;
76107;SDS011;64834;52.516;10.528;2023-06-22T10:40:46;10.55;;;9.55;;
76107;SDS011;64834;52.516;10.528;2023-06-22T10:43:11;11.25;;;9.13;;
76107;SDS011;64834;52.516;10.528;2023-06-22T10:45:36;10.63;;;9.55;;
76107;SDS011;64834;52.516;10.528;2023-06-22T10:48:02;10.52;;;8.65;;
76107;SDS011;64834;52.516;10.528;2023-06-22T10:50:27;10.00;;;9.00;;
76107;SDS011;64834;52.516;10.528;2023-06-22T10:52:53;11.88;;;9.07;;
76107;SDS011;64834;52.516;10.528;2023-06-22T10:55:19;11.23;;;8.85;;
76107;SDS011;64834;52.516;10.528;2023-06-22T10:57:44;9.82;;;8.52;;
76107;SDS011;64834;52.516;10.528;2023-06-22T11:00:12;10.95;;;8.98;;
76107;SDS011;64834;52.516;10.528;2023-06-22T11:02:38;13.50;;;9.70;;
76107;SDS011;64834;52.516;10.528;2023-06-22T11:05:04;9.82;;;8.82;;
76107;SDS011;64834;52.516;10.528;2023-06-22T11:07:29;11.35;;;10.23;;
76107;SDS011;64834;52.516;10.528;2023-06-22T11:09:55;9.88;;;8.80;;
76107;SDS011;64834;52.516;10.528;2023-06-22T11:12:21;11.18;;;9.55;;
76107;SDS011;64834;52.516;10.528;2023-06-22T11:14:46;9.55;;;8.52;;
76107;SDS011;64834;52.516;10.528;2023-06-22T11:17:12;12.00;;;9.57;;
76107;SDS011;64834;52.516;10.528;2023-06-22T11:19:40;11.02;;;9.02;;
76107;SDS011;64834;52.516;10.528;2023-06-22T11:22:09;8.90;;;7.97;;
76107;SDS011;64834;52.516;10.528;2023-06-22T11:24:34;11.48;;;9.00;;
76107;SDS011;64834;52.516;10.528;2023-06-22T11:26:59;10.40;;;8.60;;
76107;SDS011;64834;52.516;10.528;2023-06-22T11:29:25;9.88;;;8.88;;
76107;SDS011;64834;52.516;10.528;2023-06-22T11:31:50;9.75;;;8.68;;
76107;SDS011;64834;52.516;10.528;2023-06-22T11:34:15;10.35;;;8.93;;
76107;SDS011;64834;52.516;10.528;2023-06-22T11:36:41;9.75;;;8.70;;
76107;SDS011;64834;52.516;10.528;2023-06-22T11:39:07;9.75;;;8.85;;
76107;SDS011;64834;52.516;10.528;2023-06-22T11:41:34;9.60;;;8.65;;
76107;SDS011;64834;52.516;10.528;2023-06-22T11:43:59;9.70;;;8.63;;
76107;SDS011;64834;52.516;10.528;2023-06-22T11:46:25;8.82;;;7.85;;
76107;SDS011;64834;52.516;10.528;2023-06-22T11:48:50;9.32;;;8.00;;
76107;SDS011;64834;52.516;10.528;2023-06-22T11:51:15;9.57;;;7.68;;
76107;SDS011;64834;52.516;10.528;2023-06-22T11:53:41;10.23;;;8.13;;
76107;SDS011;64834;52.516;10.528;2023-06-22T11:56:06;10.23;;;8.63;;
76107;SDS011;64834;52.516;10.528;2023-06-22T11:58:32;10.20;;;8.00;;
76107;SDS011;64834;52.516;10.528;2023-06-22T12:00:57;10.55;;;8.90;;
76107;SDS011;64834;52.516;10.528;2023-06-22T12:03:22;9.68;;;8.68;;
76107;SDS011;64834;52.516;10.528;2023-06-22T12:05:49;9.35;;;8.18;;
76107;SDS011;64834;52.516;10.528;2023-06-22T12:08:16;9.50;;;8.60;;
76107;SDS011;64834;52.516;10.528;2023-06-22T12:10:41;10.57;;;9.10;;
76107;SDS011;64834;52.516;10.528;2023-06-22T12:13:06;9.88;;;8.52;;
76107;SDS011;64834;52.516;10.528;2023-06-22T12:15:32;11.55;;;9.13;;
76107;SDS011;64834;52.516;10.528;2023-06-22T12:17:57;11.38;;;9.65;;
76107;SDS011;64834;52.516;10.528;2023-06-22T12:20:22;9.38;;;8.43;;
76107;SDS011;64834;52.516;10.528;2023-06-22T12:22:48;10.20;;;8.75;;
76107;SDS011;64834;52.516;10.528;2023-06-22T12:25:16;8.98;;;8.07;;
76107;SDS011;64834;52.516;10.528;2023-06-22T12:27:41;9.52;;;8.52;;
76107;SDS011;64834;52.516;10.528;2023-06-22T12:30:08;9.43;;;8.48;;
76107;SDS011;64834;52.516;10.528;2023-06-22T12:32:33;9.98;;;9.02;;
76107;SDS011;64834;52.516;10.528;2023-06-22T12:34:58;11.65;;;9.32;;
76107;SDS011;64834;52.516;10.528;2023-06-22T12:37:24;11.63;;;9.05;;
76107;SDS011;64834;52.516;10.528;2023-06-22T12:39:49;11.52;;;9.85;;
76107;SDS011;64834;52.516;10.528;2023-06-22T12:42:15;10.15;;;8.70;;
76107;SDS011;64834;52.516;10.528;2023-06-22T12:44:41;9.40;;;8.48;;
76107;SDS011;64834;52.516;10.528;2023-06-22T12:47:07;10.75;;;9.57;;
76107;SDS011;64834;52.516;10.528;2023-06-22T12:49:36;9.27;;;8.32;;
76107;SDS011;64834;52.516;10.528;2023-06-22T12:52:01;9.05;;;8.15;;
76107;SDS011;64834;52.516;10.528;2023-06-22T12:54:27;9.93;;;9.02;;
76107;SDS011;64834;52.516;10.528;2023-06-22T12:56:54;9.35;;;8.23;;
76107;SDS011;64834;52.516;10.528;2023-06-22T12:59:19;10.73;;;8.55;;
76107;SDS011;64834;52.516;10.528;2023-06-22T13:01:45;10.27;;;8.40;;
76107;SDS011;64834;52.516;10.528;2023-06-22T13:04:11;8.82;;;7.93;;
76107;SDS011;64834;52.516;10.528;2023-06-22T13:06:39;9.80;;;8.80;;
76107;SDS011;64834;52.516;10.528;2023-06-22T13:09:05;9.95;;;9.05;;
76107;SDS011;64834;52.516;10.528;2023-06-22T13:11:30;10.68;;;7.95;;
76107;SDS011;64834;52.516;10.528;2023-06-22T13:13:58;9.57;;;8.68;;
76107;SDS011;64834;52.516;10.528;2023-06-22T13:16:23;10.23;;;8.45;;
76107;SDS011;64834;52.516;10.528;2023-06-22T13:18:48;8.80;;;8.00;;
76107;SDS011;64834;52.516;10.528;2023-06-22T13:21:14;10.32;;;7.85;;
76107;SDS011;64834;52.516;10.528;2023-06-22T13:23:39;9.90;;;8.27;;
76107;SDS011;64834;52.516;10.528;2023-06-22T13:26:05;11.50;;;8.40;;
76107;SDS011;64834;52.516;10.528;2023-06-22T13:28:30;8.77;;;7.97;;
76107;SDS011;64834;52.516;10.528;2023-06-22T13:30:55;11.40;;;8.57;;
76107;SDS011;64834;52.516;10.528;2023-06-22T13:33:21;9.55;;;8.30;;
76107;SDS011;64834;52.516;10.528;2023-06-22T13:35:46;8.95;;;7.95;;
76107;SDS011;64834;52.516;10.528;2023-06-22T13:38:11;11.10;;;8.73;;
76107;SDS011;64834;52.516;10.528;2023-06-22T13:40:37;8.63;;;7.80;;
76107;SDS011;64834;52.516;10.528;2023-06-22T13:43:03;8.23;;;7.40;;
76107;SDS011;64834;52.516;10.528;2023-06-22T13:45:29;9.55;;;7.38;;
76107;SDS011;64834;52.516;10.528;2023-06-22T13:47:54;9.02;;;7.40;;
76107;SDS011;64834;52.516;10.528;2023-06-22T13:50:19;8.90;;;7.65;;
76107;SDS011;64834;52.516;10.528;2023-06-22T13:52:45;8.82;;;7.55;;
76107;SDS011;64834;52.516;10.528;2023-06-22T13:55:10;7.22;;;6.43;;
76107;SDS011;64834;52.516;10.528;2023-06-22T13:57:36;9.63;;;7.25;;
76107;SDS011;64834;52.516;10.528;2023-06-22T14:00:03;8.43;;;7.05;;
76107;SDS011;64834;52.516;10.528;2023-06-22T14:02:30;7.88;;;7.05;;
76107;SDS011;64834;52.516;10.528;2023-06-22T14:04:56;8.80;;;7.20;;
76107;SDS011;64834;52.516;10.528;2023-06-22T14:07:21;7.38;;;6.50;;
76107;SDS011;64834;52.516;10.528;2023-06-22T14:09:46;8.63;;;7.25;;
76107;SDS011;64834;52.516;10.528;2023-06-22T14:12:12;8.98;;;6.72;;
76107;SDS011;64834;52.516;10.528;2023-06-22T14:14:37;7.55;;;6.50;;
76107;SDS011;64834;52.516;10.528;2023-06-22T14:17:03;7.63;;;6.80;;
76107;SDS011;64834;52.516;10.528;2023-06-22T14:19:29;7.90;;;7.03;;
76107;SDS011;64834;52.516;10.528;2023-06-22T14:21:54;9.27;;;8.38;;
76107;SDS011;64834;52.516;10.528;2023-06-22T14:24:20;7.75;;;6.80;;
76107;SDS011;64834;52.516;10.528;2023-06-22T14:26:45;8.70;;;6.75;;
76107;SDS011;64834;52.516;10.528;2023-06-22T14:29:10;8.05;;;6.88;;
76107;SDS011;64834;52.516;10.528;2023-06-22T14:31:36;8.18;;;6.88;;